Time;durP1;ratioP1;P1;durP2;ratioP2;P2;SDS_P1;SDS_P2;PMS_P1;PMS_P2;Temp;Humidity;BMP_temperature;BMP_pressure;BME280_temperature;BME280_humidity;BME280_pressure;Samples;Min_cycle;Max_cycle;Signal;HPM_P1;HPM_P2
2022/09/03 00:01:36;;;;;;;;;;;18.00;99.90;;;;;;5081396;28;19927;-67
2022/09/03 00:04:10;;;;;;;;;;;18.00;99.90;;;;;;5087070;28;19977;-68
2022/09/03 00:06:39;;;;;;;;;;;17.80;99.90;;;;;;5078753;28;19905;-67
2022/09/03 00:09:08;;;;;;;;;;;17.80;99.90;;;;;;5086511;28;19935;-67
2022/09/03 00:11:49;;;;;;;;;;;17.70;99.90;;;;;;5090091;28;19959;-69
2022/09/03 00:14:18;;;;;;;;;;;17.50;99.90;;;;;;5081656;28;19905;-67
2022/09/03 00:16:47;;;;;;;;;;;17.40;99.90;;;;;;5079846;28;19935;-68
2022/09/03 00:19:16;;;;;;;;;;;17.50;99.90;;;;;;5079773;28;19931;-68
2022/09/03 00:21:48;;;;;;;;;;;17.40;99.90;;;;;;5086106;28;19904;-67
2022/09/03 00:24:15;;;;;;;;;;;17.50;99.90;;;;;;5087800;28;19905;-68
2022/09/03 00:26:50;;;;;;;;;;;17.30;99.90;;;;;;5078702;28;19901;-67
2022/09/03 00:29:22;;;;;;;;;;;17.30;99.90;;;;;;5080374;28;19923;-68
2022/09/03 00:31:50;;;;;;;;;;;17.10;99.90;;;;;;5091497;28;19916;-68
2022/09/03 00:34:16;;;;;;;;;;;17.00;99.90;;;;;;5078793;28;19905;-67
2022/09/03 00:36:43;;;;;;;;;;;17.00;99.90;;;;;;5107433;28;19912;-68
2022/09/03 00:39:13;;;;;;;;;;;17.00;99.90;;;;;;5081332;28;19911;-68
2022/09/03 00:41:45;;;;;;;;;;;17.00;99.90;;;;;;5080113;28;19968;-67
2022/09/03 00:44:15;;;;;;;;;;;16.90;99.90;;;;;;5086004;28;19943;-67
2022/09/03 00:46:53;;;;;;;;;;;16.80;99.90;;;;;;5082361;28;19905;-68
2022/09/03 00:49:38;;;;;;;;;;;16.70;99.90;;;;;;5081874;28;19943;-68
2022/09/03 00:52:18;;;;;;;;;;;16.80;99.90;;;;;;5080880;28;19908;-68
2022/09/03 00:54:47;;;;;;;;;;;16.80;99.90;;;;;;5083531;28;19900;-68
2022/09/03 00:57:15;;;;;;;;;;;16.70;99.90;;;;;;5090772;28;19919;-67
2022/09/03 00:59:47;;;;;;;;;;;16.60;99.90;;;;;;5081543;28;19977;-67
2022/09/03 01:02:32;;;;;;;;;;;16.60;99.90;;;;;;5085703;28;19909;-68
2022/09/03 01:05:01;;;;;;;;;;;16.60;99.90;;;;;;5106708;28;19905;-68
2022/09/03 01:07:30;;;;;;;;;;;16.50;99.90;;;;;;5080152;28;19912;-69
2022/09/03 01:10:15;;;;;;;;;;;16.50;99.90;;;;;;5079191;28;19968;-67
2022/09/03 01:13:00;;;;;;;;;;;16.40;99.90;;;;;;5085890;28;20160;-67
2022/09/03 01:15:29;;;;;;;;;;;16.40;99.90;;;;;;5088115;28;19907;-68
2022/09/03 01:18:10;;;;;;;;;;;16.30;99.90;;;;;;5078768;28;19916;-68
2022/09/03 01:20:53;;;;;;;;;;;16.40;99.90;;;;;;5078331;28;19905;-68
2022/09/03 01:23:29;;;;;;;;;;;16.20;99.90;;;;;;5079431;28;20002;-67
2022/09/03 01:25:58;;;;;;;;;;;16.20;99.90;;;;;;5078121;28;19931;-67
2022/09/03 01:28:33;;;;;;;;;;;16.10;99.90;;;;;;5079961;28;20065;-67
2022/09/03 01:31:17;;;;;;;;;;;16.10;99.90;;;;;;5079372;28;19901;-68
2022/09/03 01:33:47;;;;;;;;;;;16.10;99.90;;;;;;5078333;28;19915;-67
2022/09/03 01:36:12;;;;;;;;;;;16.00;99.90;;;;;;5091032;28;19993;-67
2022/09/03 01:38:49;;;;;;;;;;;16.00;99.90;;;;;;5078445;28;19991;-68
2022/09/03 01:44:27;;;;;;;;;;;15.90;99.90;;;;;;5089190;28;19928;-67
2022/09/03 01:47:01;;;;;;;;;;;15.90;99.90;;;;;;5078513;28;19905;-68
2022/09/03 01:49:35;;;;;;;;;;;15.90;99.90;;;;;;5083657;28;19912;-67
2022/09/03 01:52:11;;;;;;;;;;;15.70;99.90;;;;;;5078942;28;19901;-67
2022/09/03 01:54:42;;;;;;;;;;;15.70;99.90;;;;;;5103261;28;19926;-68
2022/09/03 01:57:08;;;;;;;;;;;15.70;99.90;;;;;;5080317;28;19913;-67
2022/09/03 01:59:34;;;;;;;;;;;15.60;99.90;;;;;;5081800;28;19964;-68
2022/09/03 02:01:59;;;;;;;;;;;15.50;99.90;;;;;;5082594;28;19927;-68
2022/09/03 02:04:26;;;;;;;;;;;15.50;99.90;;;;;;5088705;28;19901;-67
2022/09/03 02:06:52;;;;;;;;;;;15.50;99.90;;;;;;5079086;28;19905;-67
2022/09/03 02:09:17;;;;;;;;;;;15.40;99.90;;;;;;5083938;28;19919;-68
2022/09/03 02:11:45;;;;;;;;;;;15.40;99.90;;;;;;5077408;28;19922;-67
2022/09/03 02:14:12;;;;;;;;;;;15.30;99.90;;;;;;5077436;28;19905;-67
2022/09/03 02:16:37;;;;;;;;;;;15.30;99.90;;;;;;5100306;28;19912;-68
2022/09/03 02:19:09;;;;;;;;;;;15.40;99.90;;;;;;5080569;28;19904;-66
2022/09/03 02:21:37;;;;;;;;;;;15.40;99.90;;;;;;5084511;28;19928;-67
2022/09/03 02:24:03;;;;;;;;;;;15.30;99.90;;;;;;5078481;28;19928;-68
2022/09/03 02:26:29;;;;;;;;;;;15.30;99.90;;;;;;5077426;28;19905;-68
2022/09/03 02:28:55;;;;;;;;;;;15.30;99.90;;;;;;5076306;28;19916;-67
2022/09/03 02:31:21;;;;;;;;;;;15.20;99.90;;;;;;5077762;28;19932;-67
2022/09/03 02:33:47;;;;;;;;;;;15.30;99.90;;;;;;5078012;28;19968;-67
2022/09/03 02:36:15;;;;;;;;;;;15.20;99.90;;;;;;5082980;28;20087;-67
2022/09/03 02:38:42;;;;;;;;;;;15.20;99.90;;;;;;5081214;28;19932;-68
2022/09/03 02:41:07;;;;;;;;;;;15.20;99.90;;;;;;5082882;28;19964;-67
2022/09/03 02:43:37;;;;;;;;;;;15.20;99.90;;;;;;5090485;28;19901;-68
2022/09/03 02:46:03;;;;;;;;;;;15.10;99.90;;;;;;5076646;28;19940;-67
2022/09/03 02:48:29;;;;;;;;;;;15.10;99.90;;;;;;5086760;28;19915;-67
2022/09/03 02:50:54;;;;;;;;;;;15.20;99.90;;;;;;5089369;28;19904;-68
2022/09/03 02:53:20;;;;;;;;;;;15.30;99.90;;;;;;5081469;28;19968;-68
2022/09/03 02:55:46;;;;;;;;;;;15.30;99.90;;;;;;5083077;28;19936;-69
2022/09/03 02:58:11;;;;;;;;;;;15.50;99.90;;;;;;5082025;28;19901;-67
2022/09/03 03:00:39;;;;;;;;;;;15.50;99.90;;;;;;5085296;28;20195;-67
2022/09/03 03:03:05;;;;;;;;;;;15.40;99.90;;;;;;5078678;28;19964;-67
2022/09/03 03:05:57;;;;;;;;;;;15.50;99.90;;;;;;5093353;28;19931;-67
2022/09/03 03:08:24;;;;;;;;;;;15.50;99.90;;;;;;5080919;28;19905;-67
2022/09/03 03:10:55;;;;;;;;;;;15.50;99.90;;;;;;5087347;28;20954;-67
2022/09/03 03:13:21;;;;;;;;;;;15.60;99.90;;;;;;5084090;28;19909;-67
2022/09/03 03:15:47;;;;;;;;;;;15.60;99.90;;;;;;5081230;28;19984;-70
2022/09/03 03:18:13;;;;;;;;;;;15.70;99.90;;;;;;5076368;28;19912;-67
2022/09/03 03:20:39;;;;;;;;;;;15.80;99.90;;;;;;5079112;28;19901;-68
2022/09/03 03:23:05;;;;;;;;;;;15.80;99.90;;;;;;5078480;28;19907;-67
2022/09/03 03:25:32;;;;;;;;;;;15.70;99.90;;;;;;5077291;28;19912;-67
2022/09/03 03:27:57;;;;;;;;;;;15.70;99.90;;;;;;5089021;28;19916;-67
2022/09/03 03:30:22;;;;;;;;;;;15.70;99.90;;;;;;5077021;28;19905;-68
2022/09/03 03:32:48;;;;;;;;;;;15.50;99.90;;;;;;5074103;28;19905;-67
2022/09/03 03:35:14;;;;;;;;;;;15.50;99.90;;;;;;5081357;28;19904;-67
2022/09/03 03:37:39;;;;;;;;;;;15.50;99.90;;;;;;5079464;28;19932;-67
2022/09/03 03:40:06;;;;;;;;;;;15.40;99.90;;;;;;5077049;28;19901;-68
2022/09/03 03:42:33;;;;;;;;;;;15.40;99.90;;;;;;5087295;28;19901;-68
2022/09/03 03:44:59;;;;;;;;;;;15.40;99.90;;;;;;5095382;28;19961;-67
2022/09/03 03:47:24;;;;;;;;;;;15.50;99.90;;;;;;5082554;28;20984;-67
2022/09/03 03:49:50;;;;;;;;;;;15.50;99.90;;;;;;5086040;28;19960;-67
2022/09/03 03:52:15;;;;;;;;;;;15.50;99.90;;;;;;5076028;28;19901;-67
2022/09/03 03:54:41;;;;;;;;;;;15.60;99.90;;;;;;5095997;28;19904;-67
2022/09/03 03:57:06;;;;;;;;;;;15.60;99.90;;;;;;5079720;28;20003;-67
2022/09/03 03:59:32;;;;;;;;;;;15.60;99.90;;;;;;5080489;28;19905;-67
2022/09/03 04:01:57;;;;;;;;;;;15.70;99.90;;;;;;5088207;28;19905;-68
2022/09/03 04:04:23;;;;;;;;;;;15.80;99.90;;;;;;5078257;28;19972;-67
2022/09/03 04:06:48;;;;;;;;;;;15.80;99.90;;;;;;5081557;28;19904;-67
2022/09/03 04:09:14;;;;;;;;;;;15.80;99.90;;;;;;5075253;28;20007;-68
2022/09/03 04:11:39;;;;;;;;;;;15.70;99.90;;;;;;5083357;28;19904;-67
2022/09/03 04:14:05;;;;;;;;;;;15.70;99.90;;;;;;5084440;28;19900;-68
2022/09/03 04:16:31;;;;;;;;;;;15.80;99.90;;;;;;5077841;28;19929;-68
2022/09/03 04:18:57;;;;;;;;;;;15.80;99.90;;;;;;5079029;28;19940;-68
2022/09/03 04:21:23;;;;;;;;;;;15.90;99.90;;;;;;5100595;28;19913;-67
2022/09/03 04:23:50;;;;;;;;;;;16.00;99.90;;;;;;5076495;28;19989;-67
2022/09/03 04:26:16;;;;;;;;;;;16.10;99.90;;;;;;5084845;28;19947;-67
2022/09/03 04:28:44;;;;;;;;;;;16.20;99.90;;;;;;5077508;28;19912;-67
2022/09/03 04:31:10;;;;;;;;;;;16.10;99.90;;;;;;5080778;28;19946;-67
2022/09/03 04:33:38;;;;;;;;;;;16.10;99.90;;;;;;5079472;28;19905;-67
2022/09/03 04:36:08;;;;;;;;;;;16.10;99.90;;;;;;5081265;28;19938;-69
2022/09/03 04:38:35;;;;;;;;;;;16.20;99.90;;;;;;5077997;28;19913;-68
2022/09/03 04:41:00;;;;;;;;;;;16.20;99.90;;;;;;5075924;28;19900;-68
2022/09/03 04:43:27;;;;;;;;;;;16.40;99.90;;;;;;5092380;28;19912;-69
2022/09/03 04:45:57;;;;;;;;;;;16.40;99.90;;;;;;5085040;28;19912;-67
2022/09/03 04:48:22;;;;;;;;;;;16.40;99.90;;;;;;5092635;28;19905;-67
2022/09/03 04:50:48;;;;;;;;;;;16.40;99.90;;;;;;5080337;28;19931;-67
2022/09/03 04:53:14;;;;;;;;;;;16.40;99.90;;;;;;5081924;28;19905;-67
2022/09/03 04:55:39;;;;;;;;;;;16.40;99.90;;;;;;5084426;28;19905;-68
2022/09/03 04:58:08;;;;;;;;;;;16.50;99.90;;;;;;5090170;28;20040;-67
2022/09/03 05:00:35;;;;;;;;;;;16.50;99.90;;;;;;5079945;28;19927;-67
2022/09/03 05:03:00;;;;;;;;;;;16.50;99.90;;;;;;5086394;28;19932;-72
2022/09/03 05:05:26;;;;;;;;;;;16.50;99.90;;;;;;5089582;28;19923;-68
2022/09/03 05:07:52;;;;;;;;;;;16.60;99.90;;;;;;5079887;28;19912;-68
2022/09/03 05:10:21;;;;;;;;;;;16.70;99.90;;;;;;5100949;28;19926;-68
2022/09/03 05:12:48;;;;;;;;;;;16.90;99.90;;;;;;5082227;28;19900;-68
2022/09/03 05:15:14;;;;;;;;;;;17.20;99.90;;;;;;5079333;28;19945;-67
2022/09/03 05:17:40;;;;;;;;;;;17.40;99.90;;;;;;5078838;28;19913;-67
2022/09/03 05:20:09;;;;;;;;;;;17.60;99.90;;;;;;5078816;28;19901;-69
2022/09/03 05:22:34;;;;;;;;;;;17.60;99.90;;;;;;5088535;28;19901;-68
2022/09/03 05:25:00;;;;;;;;;;;17.70;99.90;;;;;;5091382;28;19926;-68
2022/09/03 05:27:25;;;;;;;;;;;17.80;99.90;;;;;;5082578;28;19948;-67
2022/09/03 05:29:51;;;;;;;;;;;17.90;99.90;;;;;;5083739;28;19916;-68
2022/09/03 05:32:16;;;;;;;;;;;17.90;99.90;;;;;;5081868;28;19955;-67
2022/09/03 05:34:42;;;;;;;;;;;17.90;99.90;;;;;;5086756;28;19905;-68
2022/09/03 05:37:08;;;;;;;;;;;17.90;99.90;;;;;;5079286;28;19920;-68
2022/09/03 05:39:34;;;;;;;;;;;17.90;99.90;;;;;;5083599;28;19979;-67
2022/09/03 05:41:59;;;;;;;;;;;17.80;99.90;;;;;;5078975;28;19945;-69
2022/09/03 05:44:25;;;;;;;;;;;17.90;99.90;;;;;;5089260;28;19901;-67
2022/09/03 05:46:50;;;;;;;;;;;17.70;99.90;;;;;;5083482;28;19905;-67
2022/09/03 05:49:16;;;;;;;;;;;17.50;99.90;;;;;;5096095;28;19904;-67
2022/09/03 05:51:42;;;;;;;;;;;17.50;99.90;;;;;;5078360;28;19956;-67
2022/09/03 05:54:08;;;;;;;;;;;17.40;99.90;;;;;;5077606;28;19905;-67
2022/09/03 05:56:35;;;;;;;;;;;17.10;99.90;;;;;;5089072;28;19935;-68
2022/09/03 05:59:04;;;;;;;;;;;17.00;99.90;;;;;;5079067;28;19981;-68
2022/09/03 06:01:31;;;;;;;;;;;17.00;99.90;;;;;;5082294;28;20056;-68
2022/09/03 06:03:58;;;;;;;;;;;17.10;99.90;;;;;;5078952;28;19905;-68
2022/09/03 06:06:24;;;;;;;;;;;17.20;99.90;;;;;;5084414;28;19920;-68
2022/09/03 06:08:50;;;;;;;;;;;17.20;99.90;;;;;;5082363;28;20036;-66
2022/09/03 06:11:16;;;;;;;;;;;17.20;99.90;;;;;;5079092;28;19901;-67
2022/09/03 06:13:41;;;;;;;;;;;17.30;99.90;;;;;;5080775;28;19905;-67
2022/09/03 06:16:07;;;;;;;;;;;17.40;99.90;;;;;;5086486;28;19940;-68
2022/09/03 06:18:33;;;;;;;;;;;17.50;99.90;;;;;;5071939;28;19904;-68
2022/09/03 06:21:03;;;;;;;;;;;17.50;99.90;;;;;;5077658;28;19931;-67
2022/09/03 06:23:29;;;;;;;;;;;17.60;99.90;;;;;;5086737;28;19940;-68
2022/09/03 06:26:24;;;;;;;;;;;17.70;99.90;;;;;;5077356;28;19905;-69
2022/09/03 06:28:53;;;;;;;;;;;17.70;99.90;;;;;;5076979;28;19916;-68
2022/09/03 06:31:19;;;;;;;;;;;17.70;99.90;;;;;;5082468;28;19916;-68
2022/09/03 06:33:48;;;;;;;;;;;17.80;99.90;;;;;;5080585;28;19904;-67
2022/09/03 06:36:15;;;;;;;;;;;18.00;99.90;;;;;;5084526;28;19909;-69
2022/09/03 06:38:41;;;;;;;;;;;18.10;99.90;;;;;;5091985;28;19943;-68
2022/09/03 06:41:09;;;;;;;;;;;18.20;99.90;;;;;;5081599;28;19913;-68
2022/09/03 06:43:36;;;;;;;;;;;18.30;99.90;;;;;;5077650;28;19905;-68
2022/09/03 06:46:06;;;;;;;;;;;18.30;99.90;;;;;;5092891;28;20145;-67
2022/09/03 06:48:32;;;;;;;;;;;18.30;99.90;;;;;;5080609;28;19904;-68
2022/09/03 06:51:00;;;;;;;;;;;18.30;99.90;;;;;;5082257;28;19924;-67
2022/09/03 06:53:26;;;;;;;;;;;18.30;99.90;;;;;;5077700;28;20474;-69
2022/09/03 06:56:03;;;;;;;;;;;18.30;99.90;;;;;;5077422;28;19932;-68
2022/09/03 06:58:33;;;;;;;;;;;18.40;99.90;;;;;;5077254;28;19905;-69
2022/09/03 07:01:06;;;;;;;;;;;18.50;99.90;;;;;;5077796;28;19904;-68
2022/09/03 07:03:32;;;;;;;;;;;18.60;99.90;;;;;;5084533;28;19904;-66
2022/09/03 07:06:01;;;;;;;;;;;18.80;99.90;;;;;;5087501;28;19905;-69
2022/09/03 07:08:27;;;;;;;;;;;18.90;99.90;;;;;;5077286;28;19927;-68
2022/09/03 07:10:52;;;;;;;;;;;18.80;99.90;;;;;;5084188;28;19904;-67
2022/09/03 07:13:19;;;;;;;;;;;18.70;99.90;;;;;;5080424;28;19916;-67
2022/09/03 07:15:45;;;;;;;;;;;18.80;99.90;;;;;;5077121;28;19972;-69
2022/09/03 07:18:11;;;;;;;;;;;19.00;99.90;;;;;;5076916;28;19901;-68
2022/09/03 07:20:36;;;;;;;;;;;19.10;99.90;;;;;;5062501;28;19905;-67
2022/09/03 07:23:02;;;;;;;;;;;19.10;99.90;;;;;;5084753;28;19911;-67
2022/09/03 07:25:30;;;;;;;;;;;19.30;99.90;;;;;;5088473;28;19904;-68
2022/09/03 07:27:55;;;;;;;;;;;19.20;99.90;;;;;;5075361;28;19905;-68
2022/09/03 07:30:21;;;;;;;;;;;19.20;99.90;;;;;;5082493;28;19905;-67
2022/09/03 07:32:50;;;;;;;;;;;19.10;99.90;;;;;;5078238;28;19904;-69
2022/09/03 07:35:17;;;;;;;;;;;19.00;99.90;;;;;;5094284;28;19924;-67
2022/09/03 07:37:42;;;;;;;;;;;19.10;99.90;;;;;;5089461;28;19968;-68
2022/09/03 07:40:09;;;;;;;;;;;19.10;99.90;;;;;;5079161;28;19912;-68
2022/09/03 07:42:37;;;;;;;;;;;19.10;99.90;;;;;;5081802;28;19950;-68
2022/09/03 07:45:04;;;;;;;;;;;19.00;99.90;;;;;;5086386;28;19904;-68
2022/09/03 07:47:31;;;;;;;;;;;18.90;99.90;;;;;;5084819;28;19905;-67
2022/09/03 07:49:56;;;;;;;;;;;18.80;99.90;;;;;;5084618;28;19917;-68
2022/09/03 07:52:22;;;;;;;;;;;18.90;99.90;;;;;;5078709;28;19951;-69
2022/09/03 07:54:47;;;;;;;;;;;18.90;99.90;;;;;;5080151;28;19901;-68
2022/09/03 07:57:13;;;;;;;;;;;19.00;99.90;;;;;;5076374;28;20056;-68
2022/09/03 07:59:39;;;;;;;;;;;19.20;99.90;;;;;;5076417;28;19992;-68
2022/09/03 08:02:04;;;;;;;;;;;19.20;99.90;;;;;;5074841;28;19936;-67
2022/09/03 08:04:32;;;;;;;;;;;19.30;99.90;;;;;;5084578;28;19958;-68
2022/09/03 08:06:58;;;;;;;;;;;19.40;99.90;;;;;;5074995;28;19901;-68
2022/09/03 08:09:24;;;;;;;;;;;19.40;99.90;;;;;;5080483;28;19916;-68
2022/09/03 08:11:50;;;;;;;;;;;19.40;99.90;;;;;;5077400;28;19932;-68
2022/09/03 08:14:15;;;;;;;;;;;19.60;99.90;;;;;;5082262;28;19932;-67
2022/09/03 08:16:42;;;;;;;;;;;19.40;99.90;;;;;;5075178;28;19967;-67
2022/09/03 08:19:08;;;;;;;;;;;19.30;99.90;;;;;;5075310;28;19935;-69
2022/09/03 08:21:33;;;;;;;;;;;19.30;99.90;;;;;;5085762;28;19932;-67
2022/09/03 08:24:02;;;;;;;;;;;19.30;99.90;;;;;;5076434;28;19971;-68
2022/09/03 08:26:30;;;;;;;;;;;19.40;99.90;;;;;;5079023;28;19914;-67
2022/09/03 08:28:56;;;;;;;;;;;19.50;99.90;;;;;;5082768;28;19946;-68
2022/09/03 08:31:23;;;;;;;;;;;19.30;99.90;;;;;;5084959;28;19909;-68
2022/09/03 08:33:51;;;;;;;;;;;19.40;99.90;;;;;;5080044;28;19905;-68
2022/09/03 08:36:24;;;;;;;;;;;19.40;99.90;;;;;;5082492;28;19980;-68
2022/09/03 08:38:54;;;;;;;;;;;19.40;99.90;;;;;;5086215;28;19924;-68
2022/09/03 08:41:28;;;;;;;;;;;19.60;99.90;;;;;;5088084;28;19923;-68
2022/09/03 08:43:57;;;;;;;;;;;19.90;99.90;;;;;;5091378;28;19931;-69
2022/09/03 08:46:25;;;;;;;;;;;20.10;99.90;;;;;;5082161;28;19912;-67
2022/09/03 08:48:52;;;;;;;;;;;20.20;99.90;;;;;;5085030;28;19905;-68
2022/09/03 08:51:19;;;;;;;;;;;20.30;99.90;;;;;;5081223;28;20015;-68
2022/09/03 08:53:50;;;;;;;;;;;20.40;99.90;;;;;;5085684;28;19901;-69
2022/09/03 08:56:27;;;;;;;;;;;20.30;99.90;;;;;;5078539;28;19959;-68
2022/09/03 08:58:52;;;;;;;;;;;20.50;99.90;;;;;;5083576;28;19905;-67
2022/09/03 09:01:33;;;;;;;;;;;20.80;99.90;;;;;;5086370;28;19943;-69
2022/09/03 09:04:05;;;;;;;;;;;20.90;99.90;;;;;;5079253;28;19927;-68
2022/09/03 09:06:48;;;;;;;;;;;20.80;99.90;;;;;;5079376;28;19916;-68
2022/09/03 09:09:17;;;;;;;;;;;21.00;99.90;;;;;;5089386;28;19916;-67
2022/09/03 09:11:42;;;;;;;;;;;21.20;99.90;;;;;;5078761;28;19927;-68
2022/09/03 09:14:18;;;;;;;;;;;21.40;99.90;;;;;;5084170;28;19917;-68
2022/09/03 09:16:43;;;;;;;;;;;21.40;99.90;;;;;;5081331;28;19983;-68
2022/09/03 09:19:20;;;;;;;;;;;21.40;99.90;;;;;;5079903;28;20018;-68
2022/09/03 09:21:49;;;;;;;;;;;21.60;99.90;;;;;;5081146;28;20338;-68
2022/09/03 09:24:20;;;;;;;;;;;21.60;99.90;;;;;;5086746;28;19916;-68
2022/09/03 09:26:47;;;;;;;;;;;21.70;99.90;;;;;;5077086;28;19964;-69
2022/09/03 09:29:13;;;;;;;;;;;21.90;99.90;;;;;;5083624;28;19909;-68
2022/09/03 09:31:39;;;;;;;;;;;22.10;99.90;;;;;;5102606;28;19905;-68
2022/09/03 09:34:07;;;;;;;;;;;22.30;99.90;;;;;;5102902;28;19904;-68
2022/09/03 09:37:02;;;;;;;;;;;22.30;99.90;;;;;;5082559;28;19924;-69
2022/09/03 09:39:27;;;;;;;;;;;22.20;99.90;;;;;;5081443;28;19904;-67
2022/09/03 09:42:10;;;;;;;;;;;22.00;99.90;;;;;;5077338;28;19972;-68
2022/09/03 09:44:40;;;;;;;;;;;21.90;99.90;;;;;;5097593;28;19916;-69
2022/09/03 09:47:09;;;;;;;;;;;22.00;99.90;;;;;;5081153;28;19912;-68
2022/09/03 09:49:55;;;;;;;;;;;22.10;99.90;;;;;;5092900;28;19920;-68
2022/09/03 09:52:24;;;;;;;;;;;22.10;99.90;;;;;;5077136;28;19947;-68
2022/09/03 09:54:51;;;;;;;;;;;22.10;99.90;;;;;;5078348;28;19927;-69
2022/09/03 09:57:20;;;;;;;;;;;21.90;99.90;;;;;;5075913;28;19940;-69
2022/09/03 09:59:45;;;;;;;;;;;21.70;99.90;;;;;;5052897;28;19904;-68
2022/09/03 10:02:19;;;;;;;;;;;21.90;99.90;;;;;;5062356;28;20002;-67
2022/09/03 10:04:44;;;;;;;;;;;22.10;99.90;;;;;;5064451;28;19905;-68
2022/09/03 10:07:18;;;;;;;;;;;22.30;99.90;;;;;;5057388;28;19924;-69
2022/09/03 10:09:44;;;;;;;;;;;22.30;99.90;;;;;;5065520;28;19929;-68
2022/09/03 10:12:22;;;;;;;;;;;22.40;99.90;;;;;;5051900;28;20388;-68
2022/09/03 10:15:09;;;;;;;;;;;22.40;99.90;;;;;;5059629;28;20040;-67
2022/09/03 10:17:38;;;;;;;;;;;22.40;99.90;;;;;;5059024;28;20013;-69
2022/09/03 10:20:26;;;;;;;;;;;22.40;99.90;;;;;;5051258;28;20440;-68
2022/09/03 10:23:08;;;;;;;;;;;22.70;99.90;;;;;;5046603;28;19967;-69
2022/09/03 10:25:38;;;;;;;;;;;23.00;99.90;;;;;;5047904;28;19938;-69
2022/09/03 10:28:05;;;;;;;;;;;23.10;99.90;;;;;;5049147;28;19921;-70
2022/09/03 10:30:33;;;;;;;;;;;23.10;99.90;;;;;;5047067;28;19912;-70
2022/09/03 10:33:13;;;;;;;;;;;23.00;99.90;;;;;;5052369;28;19967;-69
2022/09/03 10:35:45;;;;;;;;;;;22.90;99.90;;;;;;5051518;28;19913;-68
2022/09/03 10:38:18;;;;;;;;;;;23.00;99.90;;;;;;5049184;28;20398;-69
2022/09/03 10:41:07;;;;;;;;;;;22.90;99.90;;;;;;5060363;28;19943;-69
2022/09/03 10:43:52;;;;;;;;;;;23.00;99.90;;;;;;5053177;28;19913;-69
2022/09/03 10:46:44;;;;;;;;;;;23.20;99.90;;;;;;5051172;28;19917;-68
2022/09/03 10:49:17;;;;;;;;;;;23.30;99.90;;;;;;5062883;28;19969;-69
2022/09/03 10:52:05;;;;;;;;;;;23.30;99.90;;;;;;5068663;28;20646;-67
2022/09/03 10:54:49;;;;;;;;;;;23.40;99.90;;;;;;5054781;28;20017;-66
2022/09/03 10:57:23;;;;;;;;;;;23.50;99.90;;;;;;5066020;28;19967;-67
2022/09/03 10:59:52;;;;;;;;;;;23.70;99.90;;;;;;5077855;28;19956;-68
2022/09/03 11:02:38;;;;;;;;;;;23.70;99.90;;;;;;5066432;28;19905;-68
2022/09/03 11:05:26;;;;;;;;;;;23.80;99.90;;;;;;5055734;28;19951;-69
2022/09/03 11:08:10;;;;;;;;;;;23.70;99.90;;;;;;5039295;28;19917;-71
2022/09/03 11:10:49;;;;;;;;;;;23.80;99.90;;;;;;5040212;28;19913;-70
2022/09/03 11:13:27;;;;;;;;;;;24.00;99.90;;;;;;5040148;28;21201;-69
2022/09/03 11:16:14;;;;;;;;;;;24.10;99.90;;;;;;5042166;28;19921;-69
2022/09/03 11:18:40;;;;;;;;;;;23.90;98.40;;;;;;5040800;28;19928;-68
2022/09/03 11:21:09;;;;;;;;;;;23.70;98.60;;;;;;5041694;28;20016;-69
2022/09/03 11:23:37;;;;;;;;;;;23.60;97.90;;;;;;5043266;28;21316;-69
2022/09/03 11:26:05;;;;;;;;;;;23.70;97.70;;;;;;5040601;28;20318;-69
2022/09/03 11:28:30;;;;;;;;;;;23.80;94.90;;;;;;5041182;28;19916;-69
2022/09/03 11:31:16;;;;;;;;;;;23.90;92.40;;;;;;5041964;28;19975;-69
2022/09/03 11:33:48;;;;;;;;;;;23.70;92.90;;;;;;5043328;28;20433;-69
2022/09/03 11:36:27;;;;;;;;;;;23.80;93.10;;;;;;5041620;28;20014;-69
2022/09/03 11:38:53;;;;;;;;;;;23.90;93.00;;;;;;5038148;28;19912;-69
2022/09/03 11:41:21;;;;;;;;;;;23.70;92.50;;;;;;5041094;28;20376;-68
2022/09/03 11:43:47;;;;;;;;;;;23.60;91.40;;;;;;5048814;28;19916;-69
2022/09/03 11:46:25;;;;;;;;;;;23.50;92.60;;;;;;5042722;28;19923;-69
2022/09/03 11:48:54;;;;;;;;;;;23.50;92.40;;;;;;5036773;28;21941;-69
2022/09/03 11:51:25;;;;;;;;;;;23.70;92.60;;;;;;5037761;28;19913;-69
2022/09/03 11:53:58;;;;;;;;;;;23.70;90.80;;;;;;5031986;28;19912;-69
2022/09/03 11:56:24;;;;;;;;;;;23.50;91.60;;;;;;5039254;28;19928;-69
2022/09/03 11:59:00;;;;;;;;;;;23.60;92.00;;;;;;5043645;28;19920;-69
2022/09/03 12:01:27;;;;;;;;;;;23.80;91.60;;;;;;5038977;28;20266;-68
2022/09/03 12:03:57;;;;;;;;;;;23.70;91.30;;;;;;5060213;28;19909;-68
2022/09/03 12:06:31;;;;;;;;;;;23.80;91.10;;;;;;5054127;28;19931;-67
2022/09/03 12:08:59;;;;;;;;;;;23.70;91.60;;;;;;5072154;28;19913;-68
2022/09/03 12:11:25;;;;;;;;;;;23.70;91.90;;;;;;5066791;28;19940;-67
2022/09/03 12:13:57;;;;;;;;;;;23.70;91.70;;;;;;5066894;28;20020;-67
2022/09/03 12:16:25;;;;;;;;;;;23.70;91.30;;;;;;5068616;28;19913;-69
2022/09/03 12:18:56;;;;;;;;;;;23.70;90.80;;;;;;5071765;28;19917;-68
2022/09/03 12:21:22;;;;;;;;;;;23.90;91.20;;;;;;5068366;28;19952;-68
2022/09/03 12:23:49;;;;;;;;;;;24.10;90.20;;;;;;5066201;28;19940;-69
2022/09/03 12:26:18;;;;;;;;;;;24.10;89.00;;;;;;5065540;28;19978;-68
2022/09/03 12:28:45;;;;;;;;;;;24.30;87.00;;;;;;5061930;28;19973;-69
2022/09/03 12:31:22;;;;;;;;;;;24.50;87.00;;;;;;5063059;28;19925;-68
2022/09/03 12:33:50;;;;;;;;;;;24.60;83.80;;;;;;5068415;28;19905;-67
2022/09/03 12:36:15;;;;;;;;;;;24.30;78.30;;;;;;5073992;28;19917;-68
2022/09/03 12:38:41;;;;;;;;;;;24.20;82.00;;;;;;5072740;28;20062;-69
2022/09/03 12:41:27;;;;;;;;;;;24.10;77.30;;;;;;5073277;28;19915;-68
2022/09/03 12:43:57;;;;;;;;;;;24.00;84.30;;;;;;5072942;28;19928;-66
2022/09/03 12:46:24;;;;;;;;;;;24.00;85.70;;;;;;5062639;28;19928;-68
2022/09/03 12:48:56;;;;;;;;;;;23.90;84.10;;;;;;5061380;28;19921;-69
2022/09/03 12:51:22;;;;;;;;;;;24.00;80.10;;;;;;5059955;28;19951;-68
2022/09/03 12:53:48;;;;;;;;;;;24.00;78.20;;;;;;5053923;28;19929;-68
2022/09/03 12:56:14;;;;;;;;;;;23.90;79.00;;;;;;5054748;28;20579;-68
2022/09/03 12:58:46;;;;;;;;;;;23.80;79.80;;;;;;5055319;28;19916;-68
2022/09/03 13:01:15;;;;;;;;;;;24.10;85.00;;;;;;5054065;28;19936;-69
2022/09/03 13:03:48;;;;;;;;;;;24.30;78.90;;;;;;5056375;28;19920;-70
2022/09/03 13:06:15;;;;;;;;;;;24.30;76.20;;;;;;5059798;28;19916;-68
2022/09/03 13:08:49;;;;;;;;;;;24.10;78.80;;;;;;5052836;28;19912;-69
2022/09/03 13:11:15;;;;;;;;;;;24.10;81.10;;;;;;5059376;28;19917;-69
2022/09/03 13:13:49;;;;;;;;;;;24.30;77.60;;;;;;5054230;28;19917;-68
2022/09/03 13:16:20;;;;;;;;;;;24.30;78.30;;;;;;5050802;28;20941;-69
2022/09/03 13:19:00;;;;;;;;;;;24.20;76.50;;;;;;5057390;28;19914;-68
2022/09/03 13:21:26;;;;;;;;;;;23.90;77.00;;;;;;5054670;28;19913;-69
2022/09/03 13:23:52;;;;;;;;;;;23.90;76.20;;;;;;5058075;28;19913;-68
2022/09/03 13:26:23;;;;;;;;;;;23.90;76.90;;;;;;5062018;28;20361;-69
2022/09/03 13:29:08;;;;;;;;;;;24.00;75.50;;;;;;5055018;28;19920;-70
2022/09/03 13:31:42;;;;;;;;;;;23.90;75.10;;;;;;5066628;28;19981;-69
2022/09/03 13:34:16;;;;;;;;;;;24.00;76.10;;;;;;5041729;28;19977;-69
2022/09/03 13:36:47;;;;;;;;;;;24.30;74.30;;;;;;5044267;28;19927;-68
2022/09/03 13:39:20;;;;;;;;;;;24.40;72.00;;;;;;5044836;28;19943;-68
2022/09/03 13:41:49;;;;;;;;;;;24.40;74.50;;;;;;5049778;28;19913;-69
2022/09/03 13:44:19;;;;;;;;;;;24.40;71.40;;;;;;5051579;28;19917;-69
2022/09/03 13:46:44;;;;;;;;;;;24.50;69.80;;;;;;5049375;28;19919;-69
2022/09/03 13:52:21;;;;;;;;;;;24.30;70.50;;;;;;5055303;28;19924;-68
2022/09/03 13:54:51;;;;;;;;;;;24.50;68.70;;;;;;5058205;28;20004;-66
2022/09/03 13:57:25;;;;;;;;;;;24.40;68.30;;;;;;5051555;28;19975;-67
2022/09/03 14:00:20;;;;;;;;;;;24.10;68.40;;;;;;5048682;28;19914;-68
2022/09/03 14:02:53;;;;;;;;;;;24.10;69.30;;;;;;5045734;28;19984;-68
2022/09/03 14:05:23;;;;;;;;;;;24.10;69.00;;;;;;5048526;28;19913;-68
2022/09/03 14:07:55;;;;;;;;;;;23.80;69.20;;;;;;5058558;28;20660;-68
2022/09/03 14:10:30;;;;;;;;;;;23.70;70.70;;;;;;5042413;28;19921;-69
2022/09/03 14:13:05;;;;;;;;;;;23.60;70.80;;;;;;5039398;28;19926;-69
2022/09/03 14:15:35;;;;;;;;;;;23.90;69.20;;;;;;5046205;28;19916;-69
2022/09/03 14:18:01;;;;;;;;;;;24.10;68.90;;;;;;5039531;28;19924;-70
2022/09/03 14:20:29;;;;;;;;;;;23.90;67.60;;;;;;5033577;28;19950;-70
2022/09/03 14:22:59;;;;;;;;;;;23.70;68.80;;;;;;5038518;28;20326;-69
2022/09/03 14:25:25;;;;;;;;;;;23.60;69.50;;;;;;5043063;28;19921;-68
2022/09/03 14:27:51;;;;;;;;;;;23.50;69.10;;;;;;5042012;28;21083;-69
2022/09/03 14:30:35;;;;;;;;;;;23.20;68.50;;;;;;5039856;28;20474;-72
2022/09/03 14:33:19;;;;;;;;;;;23.10;70.60;;;;;;5036706;28;19947;-70
2022/09/03 14:35:45;;;;;;;;;;;23.00;71.70;;;;;;5041416;28;19947;-68
2022/09/03 14:38:31;;;;;;;;;;;23.10;72.40;;;;;;5043943;28;19925;-68